Phoenix, AZ (85045)

2:46 AM MST on October 01, 2014 (GMT -0700)
Ahwatukee Club West | Change Station
CLOSE
Current Station
Personal Weather Station
Location: Phoenix, AZ
Elevation: 1227 ft
Nearby Weather Stations

Elev 1227 ft 33.30 °N, 112.09 °W | Updated 2 minutes ago

Clear
Clear
69.3 °F
Feels Like 69.3 °F
N
0.0
Wind Variable Wind from NE
Gusts 0.0 mph

Today
High -- | Low -- °F
--% Chance of Precip.
Yesterday
High -- | Low -- °F
Precip. -- in
6:22 AM 6:12 PM
Waxing Crescent, 46% visible
Pressure 29.70 in
Visibility 10.0 miles
Clouds Clear
Dew Point 50 °F
Humidity 50%
Rainfall 0.00 in
Snow Depth 1 in , 3 in , 0 in
UV 0 out of 12
Pollen 6.10 out of 12
PM2.5 Moderate
Flu Activity Not available.
METAR KPHX 010851Z 10007KT 10SM CLR 22/11 A2975 RMK AO2 SLP058 T02220106 53001

More Conditions Fewer Conditions

Pressure 29.70 in
Visibility 10.0 miles
Clouds Clear
Dew Point 50 °F
Humidity 50%
Rainfall 0.00 in
Snow Depth 1 in , 3 in , 0 in
UV 0 out of 12
Pollen 6.10 out of 12
PM2.5 Moderate
Flu Activity Not available.
METAR KPHX 010851Z 10007KT 10SM CLR 22/11 A2975 RMK AO2 SLP058 T02220106 53001

More Conditions Fewer Conditions

10-Day Weather Forecast

Almanac

Astronomy

Oct. 01, 2014 Rise Set
Actual Time 6:22 AM MST 6:12 PM MST
Civil Twilight 5:58 AM MST 6:37 PM MST
Nautical Twilight 5:29 AM MST 7:06 PM MST
Astronomical Twilight 5:00 AM MST 7:35 PM MST
Moon 1:14 PM MST No Moon Set
Length of Visible Light 12h 39m
Length of Day
11h 50m
Tomorrow will be 2m 2s shorter.
Waxing Crescent, 46% of the Moon is Illuminated
Today
Waxing Crescent
Oct 1
First Quarter
Oct 8
Full
Oct 15
Last Quarter
Oct 23
New

Today's Extremes

State Highs State Lows

Community

WunderPhotos

Upload Photos

1,757,904 photos uploaded!

WunderBlogs® & News

Nearby

Air Quality

  Air Quality AQ Index Pollutant
Yesterday Moderate
OZONE
Yesterday Good
PM10
Current Moderate
PM2.5
Wednesday Moderate
OZONE
Wednesday Good
PM10
Wednesday Good
CO
Thursday Moderate
OZONE
Thursday Good
PM10
Thursday Good
CO

Snow Depth

Station Depth Elevation
Snowslide Canyon 1 in 9730 ft
Beaver Head 3 in 7990 ft
Coronado Trail 1 in 8400 ft
Happy Jack 0 in 7630 ft
Workman Creek 1 in 6900 ft

Earthquake Activity

City Distance Mag. Time & Date
No recent earthquake activity has been reported nearby.
Minimum magnitude displayed is 2.5.

Coastal Water Temperatures

Place Temperature
No Stations Reporting

Nearby Weather Stations